sensor_id;sensor_type;location;lat;lon;timestamp;P1;durP1;ratioP1;P2;durP2;ratioP2
22573;SDS011;11453;52.052;20.430;2022-08-04T00:00:20;11.50;;;9.20;;
22573;SDS011;11453;52.052;20.430;2022-08-04T00:11:00;12.73;;;9.38;;
22573;SDS011;11453;52.052;20.430;2022-08-04T00:13:28;11.63;;;9.35;;
22573;SDS011;11453;52.052;20.430;2022-08-04T00:16:03;14.30;;;9.45;;
22573;SDS011;11453;52.052;20.430;2022-08-04T00:18:35;10.63;;;8.88;;
22573;SDS011;11453;52.052;20.430;2022-08-04T00:21:06;12.13;;;8.73;;
22573;SDS011;11453;52.052;20.430;2022-08-04T00:23:36;11.30;;;8.30;;
22573;SDS011;11453;52.052;20.430;2022-08-04T00:26:03;11.02;;;8.65;;
22573;SDS011;11453;52.052;20.430;2022-08-04T00:28:30;11.05;;;8.85;;
22573;SDS011;11453;52.052;20.430;2022-08-04T00:30:55;11.07;;;8.35;;
22573;SDS011;11453;52.052;20.430;2022-08-04T00:33:21;10.90;;;8.57;;
22573;SDS011;11453;52.052;20.430;2022-08-04T00:35:48;9.50;;;7.95;;
22573;SDS011;11453;52.052;20.430;2022-08-04T00:38:15;12.38;;;8.05;;
22573;SDS011;11453;52.052;20.430;2022-08-04T00:40:51;11.10;;;8.10;;
22573;SDS011;11453;52.052;20.430;2022-08-04T01:00:37;10.10;;;7.50;;
22573;SDS011;11453;52.052;20.430;2022-08-04T01:06:08;9.73;;;7.43;;
22573;SDS011;11453;52.052;20.430;2022-08-04T01:20:04;12.95;;;7.07;;
22573;SDS011;11453;52.052;20.430;2022-08-04T01:30:23;8.90;;;6.45;;
22573;SDS011;11453;52.052;20.430;2022-08-04T01:32:51;11.30;;;6.88;;
22573;SDS011;11453;52.052;20.430;2022-08-04T01:35:24;9.45;;;6.70;;
22573;SDS011;11453;52.052;20.430;2022-08-04T01:38:00;10.30;;;6.70;;
22573;SDS011;11453;52.052;20.430;2022-08-04T01:43:14;9.43;;;6.40;;
22573;SDS011;11453;52.052;20.430;2022-08-04T01:45:40;10.52;;;6.97;;
22573;SDS011;11453;52.052;20.430;2022-08-04T01:48:07;9.32;;;7.13;;
22573;SDS011;11453;52.052;20.430;2022-08-04T01:50:34;12.80;;;7.25;;
22573;SDS011;11453;52.052;20.430;2022-08-04T01:53:00;10.57;;;7.35;;
22573;SDS011;11453;52.052;20.430;2022-08-04T01:55:27;11.38;;;7.05;;
22573;SDS011;11453;52.052;20.430;2022-08-04T01:57:54;9.65;;;7.00;;
22573;SDS011;11453;52.052;20.430;2022-08-04T02:00:25;12.50;;;6.80;;
22573;SDS011;11453;52.052;20.430;2022-08-04T02:02:53;10.57;;;7.00;;
22573;SDS011;11453;52.052;20.430;2022-08-04T02:05:20;9.77;;;6.68;;
22573;SDS011;11453;52.052;20.430;2022-08-04T02:18:29;9.50;;;7.43;;
22573;SDS011;11453;52.052;20.430;2022-08-04T02:21:02;9.25;;;6.43;;
22573;SDS011;11453;52.052;20.430;2022-08-04T02:23:36;10.88;;;6.68;;
22573;SDS011;11453;52.052;20.430;2022-08-04T02:26:17;10.15;;;6.95;;
22573;SDS011;11453;52.052;20.430;2022-08-04T02:31:44;11.93;;;7.05;;
22573;SDS011;11453;52.052;20.430;2022-08-04T02:34:29;10.60;;;7.00;;
22573;SDS011;11453;52.052;20.430;2022-08-04T02:36:59;11.25;;;6.43;;
22573;SDS011;11453;52.052;20.430;2022-08-04T02:39:33;10.55;;;7.25;;
22573;SDS011;11453;52.052;20.430;2022-08-04T02:42:01;11.07;;;7.47;;
22573;SDS011;11453;52.052;20.430;2022-08-04T02:44:28;11.02;;;7.20;;
22573;SDS011;11453;52.052;20.430;2022-08-04T02:46:55;9.00;;;6.95;;
22573;SDS011;11453;52.052;20.430;2022-08-04T02:49:23;10.27;;;6.72;;
22573;SDS011;11453;52.052;20.430;2022-08-04T02:51:54;10.88;;;7.28;;
22573;SDS011;11453;52.052;20.430;2022-08-04T02:54:27;9.25;;;6.82;;
22573;SDS011;11453;52.052;20.430;2022-08-04T02:56:56;9.32;;;6.95;;
22573;SDS011;11453;52.052;20.430;2022-08-04T02:59:26;9.02;;;6.72;;
22573;SDS011;11453;52.052;20.430;2022-08-04T03:12:50;12.25;;;7.38;;
22573;SDS011;11453;52.052;20.430;2022-08-04T03:37:49;10.82;;;7.30;;
22573;SDS011;11453;52.052;20.430;2022-08-04T03:40:24;10.82;;;7.20;;
22573;SDS011;11453;52.052;20.430;2022-08-04T03:51:58;10.70;;;7.32;;
22573;SDS011;11453;52.052;20.430;2022-08-04T04:12:52;12.32;;;7.97;;
22573;SDS011;11453;52.052;20.430;2022-08-04T04:24:38;12.77;;;8.07;;
22573;SDS011;11453;52.052;20.430;2022-08-04T04:32:58;12.13;;;8.02;;
22573;SDS011;11453;52.052;20.430;2022-08-04T04:38:40;12.43;;;8.45;;
22573;SDS011;11453;52.052;20.430;2022-08-04T04:46:53;11.90;;;7.93;;
22573;SDS011;11453;52.052;20.430;2022-08-04T04:52:27;13.43;;;8.07;;
22573;SDS011;11453;52.052;20.430;2022-08-04T04:55:21;12.35;;;7.82;;
22573;SDS011;11453;52.052;20.430;2022-08-04T04:57:52;9.90;;;7.25;;
22573;SDS011;11453;52.052;20.430;2022-08-04T05:14:20;10.63;;;7.53;;
22573;SDS011;11453;52.052;20.430;2022-08-04T05:17:02;13.95;;;7.65;;
22573;SDS011;11453;52.052;20.430;2022-08-04T05:22:23;14.05;;;7.40;;
22573;SDS011;11453;52.052;20.430;2022-08-04T05:27:29;12.70;;;7.70;;
22573;SDS011;11453;52.052;20.430;2022-08-04T05:30:02;10.93;;;7.15;;
22573;SDS011;11453;52.052;20.430;2022-08-04T05:32:31;13.63;;;7.50;;
22573;SDS011;11453;52.052;20.430;2022-08-04T05:35:09;10.80;;;7.10;;
22573;SDS011;11453;52.052;20.430;2022-08-04T05:37:39;10.65;;;6.82;;
22573;SDS011;11453;52.052;20.430;2022-08-04T05:40:07;9.90;;;6.82;;
22573;SDS011;11453;52.052;20.430;2022-08-04T05:42:36;10.98;;;6.53;;
22573;SDS011;11453;52.052;20.430;2022-08-04T05:45:04;10.10;;;6.43;;
22573;SDS011;11453;52.052;20.430;2022-08-04T05:47:32;10.95;;;6.85;;
22573;SDS011;11453;52.052;20.430;2022-08-04T05:49:59;8.45;;;6.40;;
22573;SDS011;11453;52.052;20.430;2022-08-04T05:52:26;11.75;;;6.95;;
22573;SDS011;11453;52.052;20.430;2022-08-04T05:54:53;10.85;;;6.78;;
22573;SDS011;11453;52.052;20.430;2022-08-04T05:57:20;8.63;;;6.43;;
22573;SDS011;11453;52.052;20.430;2022-08-04T05:59:47;9.15;;;6.20;;
22573;SDS011;11453;52.052;20.430;2022-08-04T06:02:15;9.07;;;6.22;;
22573;SDS011;11453;52.052;20.430;2022-08-04T06:04:42;9.85;;;5.95;;
22573;SDS011;11453;52.052;20.430;2022-08-04T06:07:13;9.82;;;5.95;;
22573;SDS011;11453;52.052;20.430;2022-08-04T06:09:39;13.02;;;6.20;;
22573;SDS011;11453;52.052;20.430;2022-08-04T06:12:06;10.25;;;5.85;;
22573;SDS011;11453;52.052;20.430;2022-08-04T06:14:37;9.00;;;5.85;;
22573;SDS011;11453;52.052;20.430;2022-08-04T06:17:05;7.65;;;5.72;;
22573;SDS011;11453;52.052;20.430;2022-08-04T06:19:32;11.00;;;5.70;;
22573;SDS011;11453;52.052;20.430;2022-08-04T06:22:01;8.63;;;5.78;;
22573;SDS011;11453;52.052;20.430;2022-08-04T06:24:29;9.20;;;5.82;;
22573;SDS011;11453;52.052;20.430;2022-08-04T06:26:56;10.65;;;5.95;;
22573;SDS011;11453;52.052;20.430;2022-08-04T06:29:23;9.30;;;5.88;;
22573;SDS011;11453;52.052;20.430;2022-08-04T06:32:08;10.15;;;5.80;;
22573;SDS011;11453;52.052;20.430;2022-08-04T06:34:38;7.30;;;5.30;;
22573;SDS011;11453;52.052;20.430;2022-08-04T06:37:05;10.00;;;6.25;;
22573;SDS011;11453;52.052;20.430;2022-08-04T06:39:32;9.52;;;5.70;;
22573;SDS011;11453;52.052;20.430;2022-08-04T06:41:58;7.97;;;5.18;;
22573;SDS011;11453;52.052;20.430;2022-08-04T06:44:25;7.97;;;5.70;;
22573;SDS011;11453;52.052;20.430;2022-08-04T06:46:52;9.43;;;5.50;;
22573;SDS011;11453;52.052;20.430;2022-08-04T06:49:19;8.95;;;5.43;;
22573;SDS011;11453;52.052;20.430;2022-08-04T06:51:46;9.43;;;5.72;;
22573;SDS011;11453;52.052;20.430;2022-08-04T06:54:13;8.70;;;5.60;;
22573;SDS011;11453;52.052;20.430;2022-08-04T06:56:39;8.60;;;5.00;;
22573;SDS011;11453;52.052;20.430;2022-08-04T06:59:07;8.43;;;5.43;;
22573;SDS011;11453;52.052;20.430;2022-08-04T07:01:35;9.68;;;6.22;;
22573;SDS011;11453;52.052;20.430;2022-08-04T07:04:02;8.75;;;5.70;;
22573;SDS011;11453;52.052;20.430;2022-08-04T07:06:28;8.77;;;5.28;;
22573;SDS011;11453;52.052;20.430;2022-08-04T07:08:54;9.70;;;6.22;;
22573;SDS011;11453;52.052;20.430;2022-08-04T07:11:21;11.27;;;7.22;;
22573;SDS011;11453;52.052;20.430;2022-08-04T07:13:47;12.30;;;8.52;;
22573;SDS011;11453;52.052;20.430;2022-08-04T07:16:14;7.90;;;5.47;;
22573;SDS011;11453;52.052;20.430;2022-08-04T07:18:44;8.93;;;5.40;;
22573;SDS011;11453;52.052;20.430;2022-08-04T07:21:19;8.55;;;5.35;;
22573;SDS011;11453;52.052;20.430;2022-08-04T07:23:51;9.13;;;5.22;;
22573;SDS011;11453;52.052;20.430;2022-08-04T07:26:25;9.77;;;5.10;;
22573;SDS011;11453;52.052;20.430;2022-08-04T07:28:53;6.72;;;4.85;;
22573;SDS011;11453;52.052;20.430;2022-08-04T07:31:21;7.80;;;5.68;;
22573;SDS011;11453;52.052;20.430;2022-08-04T07:33:51;7.43;;;5.25;;
22573;SDS011;11453;52.052;20.430;2022-08-04T07:36:20;8.75;;;4.82;;
22573;SDS011;11453;52.052;20.430;2022-08-04T07:38:50;7.88;;;5.65;;
22573;SDS011;11453;52.052;20.430;2022-08-04T07:41:21;7.78;;;4.88;;
22573;SDS011;11453;52.052;20.430;2022-08-04T07:43:48;8.55;;;5.25;;
22573;SDS011;11453;52.052;20.430;2022-08-04T07:46:17;8.20;;;4.65;;
22573;SDS011;11453;52.052;20.430;2022-08-04T07:48:46;7.47;;;4.72;;
22573;SDS011;11453;52.052;20.430;2022-08-04T07:51:16;7.85;;;4.20;;
22573;SDS011;11453;52.052;20.430;2022-08-04T07:53:46;10.40;;;5.30;;
22573;SDS011;11453;52.052;20.430;2022-08-04T07:56:16;8.88;;;5.97;;
22573;SDS011;11453;52.052;20.430;2022-08-04T07:58:44;11.13;;;6.00;;
22573;SDS011;11453;52.052;20.430;2022-08-04T08:01:13;8.45;;;5.10;;
22573;SDS011;11453;52.052;20.430;2022-08-04T08:03:41;9.30;;;5.53;;
22573;SDS011;11453;52.052;20.430;2022-08-04T08:06:10;8.98;;;5.57;;
22573;SDS011;11453;52.052;20.430;2022-08-04T08:08:38;7.63;;;4.82;;
22573;SDS011;11453;52.052;20.430;2022-08-04T08:11:06;8.85;;;5.78;;
22573;SDS011;11453;52.052;20.430;2022-08-04T08:13:33;10.30;;;5.47;;
22573;SDS011;11453;52.052;20.430;2022-08-04T08:16:03;18.85;;;7.75;;
22573;SDS011;11453;52.052;20.430;2022-08-04T08:18:32;22.10;;;8.23;;
22573;SDS011;11453;52.052;20.430;2022-08-04T08:21:02;14.13;;;7.05;;
22573;SDS011;11453;52.052;20.430;2022-08-04T08:23:33;15.50;;;6.40;;
22573;SDS011;11453;52.052;20.430;2022-08-04T08:26:00;15.90;;;6.93;;
22573;SDS011;11453;52.052;20.430;2022-08-04T08:28:31;14.65;;;6.50;;
22573;SDS011;11453;52.052;20.430;2022-08-04T08:31:00;12.93;;;6.00;;
22573;SDS011;11453;52.052;20.430;2022-08-04T08:33:30;11.85;;;6.28;;
22573;SDS011;11453;52.052;20.430;2022-08-04T08:36:02;10.25;;;6.00;;
22573;SDS011;11453;52.052;20.430;2022-08-04T08:58:15;10.90;;;6.68;;
22573;SDS011;11453;52.052;20.430;2022-08-04T09:01:05;10.82;;;5.75;;
22573;SDS011;11453;52.052;20.430;2022-08-04T09:06:40;9.48;;;5.78;;
22573;SDS011;11453;52.052;20.430;2022-08-04T09:12:21;9.10;;;5.10;;
22573;SDS011;11453;52.052;20.430;2022-08-04T09:15:04;8.77;;;5.45;;
22573;SDS011;11453;52.052;20.430;2022-08-04T09:18:21;11.20;;;5.93;;
22573;SDS011;11453;52.052;20.430;2022-08-04T09:24:02;8.35;;;5.10;;
22573;SDS011;11453;52.052;20.430;2022-08-04T09:27:07;11.13;;;5.35;;
22573;SDS011;11453;52.052;20.430;2022-08-04T09:51:23;11.38;;;5.22;;
22573;SDS011;11453;52.052;20.430;2022-08-04T09:54:11;8.77;;;5.47;;
22573;SDS011;11453;52.052;20.430;2022-08-04T10:02:21;7.82;;;5.18;;
22573;SDS011;11453;52.052;20.430;2022-08-04T10:04:52;6.72;;;4.07;;
22573;SDS011;11453;52.052;20.430;2022-08-04T10:15:22;7.88;;;4.63;;
22573;SDS011;11453;52.052;20.430;2022-08-04T10:20:57;6.77;;;4.53;;
22573;SDS011;11453;52.052;20.430;2022-08-04T10:23:39;9.27;;;4.90;;
22573;SDS011;11453;52.052;20.430;2022-08-04T10:29:31;11.35;;;4.75;;
22573;SDS011;11453;52.052;20.430;2022-08-04T10:32:08;8.88;;;5.00;;
22573;SDS011;11453;52.052;20.430;2022-08-04T10:37:38;7.65;;;4.60;;
22573;SDS011;11453;52.052;20.430;2022-08-04T10:40:19;7.78;;;4.45;;
22573;SDS011;11453;52.052;20.430;2022-08-04T10:43:05;9.05;;;4.28;;
22573;SDS011;11453;52.052;20.430;2022-08-04T10:45:58;7.25;;;4.50;;
22573;SDS011;11453;52.052;20.430;2022-08-04T10:48:50;8.30;;;4.68;;
22573;SDS011;11453;52.052;20.430;2022-08-04T10:54:05;8.60;;;4.55;;
22573;SDS011;11453;52.052;20.430;2022-08-04T10:56:55;8.10;;;4.63;;
22573;SDS011;11453;52.052;20.430;2022-08-04T11:07:39;7.28;;;4.68;;
22573;SDS011;11453;52.052;20.430;2022-08-04T11:10:09;8.10;;;4.75;;
22573;SDS011;11453;52.052;20.430;2022-08-04T11:12:41;7.97;;;4.67;;
22573;SDS011;11453;52.052;20.430;2022-08-04T11:15:11;9.05;;;4.22;;
22573;SDS011;11453;52.052;20.430;2022-08-04T11:17:46;5.95;;;3.90;;
22573;SDS011;11453;52.052;20.430;2022-08-04T11:20:24;8.80;;;3.85;;
22573;SDS011;11453;52.052;20.430;2022-08-04T11:23:15;6.18;;;4.00;;
22573;SDS011;11453;52.052;20.430;2022-08-04T11:31:24;6.95;;;4.65;;
22573;SDS011;11453;52.052;20.430;2022-08-04T11:34:02;7.60;;;4.25;;
22573;SDS011;11453;52.052;20.430;2022-08-04T11:36:38;7.93;;;4.80;;
22573;SDS011;11453;52.052;20.430;2022-08-04T11:39:08;15.10;;;5.93;;
22573;SDS011;11453;52.052;20.430;2022-08-04T11:44:22;8.05;;;4.50;;
22573;SDS011;11453;52.052;20.430;2022-08-04T11:46:56;9.85;;;4.75;;
22573;SDS011;11453;52.052;20.430;2022-08-04T11:49:33;5.07;;;3.92;;
22573;SDS011;11453;52.052;20.430;2022-08-04T11:52:07;8.90;;;4.30;;
22573;SDS011;11453;52.052;20.430;2022-08-04T11:54:37;10.65;;;4.80;;
22573;SDS011;11453;52.052;20.430;2022-08-04T11:57:06;6.10;;;3.90;;
22573;SDS011;11453;52.052;20.430;2022-08-04T11:59:36;6.28;;;4.20;;
22573;SDS011;11453;52.052;20.430;2022-08-04T12:05:24;8.25;;;4.50;;
22573;SDS011;11453;52.052;20.430;2022-08-04T12:10:54;5.70;;;3.85;;
22573;SDS011;11453;52.052;20.430;2022-08-04T12:13:38;7.45;;;3.97;;
22573;SDS011;11453;52.052;20.430;2022-08-04T12:16:23;12.55;;;4.00;;
22573;SDS011;11453;52.052;20.430;2022-08-04T12:19:17;6.75;;;4.15;;
22573;SDS011;11453;52.052;20.430;2022-08-04T12:22:03;10.98;;;4.20;;
22573;SDS011;11453;52.052;20.430;2022-08-04T12:24:59;7.55;;;4.18;;
22573;SDS011;11453;52.052;20.430;2022-08-04T12:30:28;15.43;;;4.90;;
22573;SDS011;11453;52.052;20.430;2022-08-04T12:33:40;11.75;;;3.72;;
22573;SDS011;11453;52.052;20.430;2022-08-04T12:35:59;7.70;;;3.90;;
22573;SDS011;11453;52.052;20.430;2022-08-04T12:38:51;9.35;;;3.90;;
22573;SDS011;11453;52.052;20.430;2022-08-04T12:41:31;7.30;;;3.80;;
22573;SDS011;11453;52.052;20.430;2022-08-04T12:44:19;7.68;;;4.00;;
22573;SDS011;11453;52.052;20.430;2022-08-04T12:46:48;10.98;;;4.35;;
22573;SDS011;11453;52.052;20.430;2022-08-04T12:49:17;9.70;;;4.45;;
22573;SDS011;11453;52.052;20.430;2022-08-04T12:51:47;7.93;;;3.70;;
22573;SDS011;11453;52.052;20.430;2022-08-04T12:54:20;7.18;;;3.60;;
22573;SDS011;11453;52.052;20.430;2022-08-04T12:59:18;7.20;;;3.00;;
22573;SDS011;11453;52.052;20.430;2022-08-04T13:01:48;5.68;;;2.95;;
22573;SDS011;11453;52.052;20.430;2022-08-04T13:04:22;6.60;;;3.10;;
22573;SDS011;11453;52.052;20.430;2022-08-04T13:09:38;6.03;;;3.45;;
22573;SDS011;11453;52.052;20.430;2022-08-04T13:12:13;7.13;;;3.45;;
22573;SDS011;11453;52.052;20.430;2022-08-04T13:14:43;7.45;;;3.72;;
22573;SDS011;11453;52.052;20.430;2022-08-04T13:17:14;6.50;;;3.10;;
22573;SDS011;11453;52.052;20.430;2022-08-04T13:19:46;7.55;;;3.50;;
22573;SDS011;11453;52.052;20.430;2022-08-04T13:22:22;7.93;;;3.70;;
22573;SDS011;11453;52.052;20.430;2022-08-04T13:24:54;7.40;;;3.20;;
22573;SDS011;11453;52.052;20.430;2022-08-04T13:27:26;5.35;;;2.75;;
22573;SDS011;11453;52.052;20.430;2022-08-04T13:29:56;6.15;;;3.40;;
22573;SDS011;11453;52.052;20.430;2022-08-04T13:32:27;9.93;;;4.00;;
22573;SDS011;11453;52.052;20.430;2022-08-04T13:34:56;12.20;;;5.22;;
22573;SDS011;11453;52.052;20.430;2022-08-04T13:39:59;10.40;;;4.18;;
22573;SDS011;11453;52.052;20.430;2022-08-04T13:42:28;12.05;;;4.28;;
22573;SDS011;11453;52.052;20.430;2022-08-04T13:44:58;12.25;;;4.05;;
22573;SDS011;11453;52.052;20.430;2022-08-04T13:47:29;14.20;;;3.53;;
22573;SDS011;11453;52.052;20.430;2022-08-04T13:50:04;9.95;;;3.55;;
22573;SDS011;11453;52.052;20.430;2022-08-04T13:52:54;19.58;;;6.75;;
22573;SDS011;11453;52.052;20.430;2022-08-04T13:55:33;15.60;;;5.38;;
22573;SDS011;11453;52.052;20.430;2022-08-04T13:58:04;6.90;;;3.50;;
22573;SDS011;11453;52.052;20.430;2022-08-04T14:00:52;5.72;;;2.88;;
22573;SDS011;11453;52.052;20.430;2022-08-04T14:08:59;25.75;;;9.18;;
22573;SDS011;11453;52.052;20.430;2022-08-04T14:11:35;15.68;;;5.82;;
22573;SDS011;11453;52.052;20.430;2022-08-04T14:22:26;7.43;;;3.03;;
22573;SDS011;11453;52.052;20.430;2022-08-04T14:24:55;5.28;;;2.88;;
22573;SDS011;11453;52.052;20.430;2022-08-04T14:27:28;6.18;;;3.17;;
22573;SDS011;11453;52.052;20.430;2022-08-04T14:30:05;6.28;;;3.20;;
22573;SDS011;11453;52.052;20.430;2022-08-04T14:32:54;7.28;;;3.28;;
22573;SDS011;11453;52.052;20.430;2022-08-04T14:35:27;8.70;;;3.08;;
22573;SDS011;11453;52.052;20.430;2022-08-04T14:37:57;7.40;;;3.40;;
22573;SDS011;11453;52.052;20.430;2022-08-04T14:40:33;6.93;;;3.53;;
22573;SDS011;11453;52.052;20.430;2022-08-04T14:43:03;6.03;;;3.88;;
22573;SDS011;11453;52.052;20.430;2022-08-04T14:48:06;6.53;;;3.05;;
22573;SDS011;11453;52.052;20.430;2022-08-04T14:50:40;7.35;;;3.60;;
22573;SDS011;11453;52.052;20.430;2022-08-04T14:53:16;6.30;;;3.38;;
22573;SDS011;11453;52.052;20.430;2022-08-04T14:55:45;8.73;;;4.30;;
22573;SDS011;11453;52.052;20.430;2022-08-04T14:58:25;6.80;;;3.85;;
22573;SDS011;11453;52.052;20.430;2022-08-04T15:00:57;8.20;;;3.70;;
22573;SDS011;11453;52.052;20.430;2022-08-04T15:03:26;7.10;;;4.03;;
22573;SDS011;11453;52.052;20.430;2022-08-04T15:05:55;8.07;;;4.45;;
22573;SDS011;11453;52.052;20.430;2022-08-04T15:08:24;10.77;;;4.45;;
22573;SDS011;11453;52.052;20.430;2022-08-04T15:10:52;7.25;;;4.13;;
22573;SDS011;11453;52.052;20.430;2022-08-04T15:13:24;9.45;;;4.90;;
22573;SDS011;11453;52.052;20.430;2022-08-04T15:15:52;6.88;;;4.68;;
22573;SDS011;11453;52.052;20.430;2022-08-04T15:18:21;6.82;;;4.50;;
22573;SDS011;11453;52.052;20.430;2022-08-04T15:20:56;7.60;;;4.55;;
22573;SDS011;11453;52.052;20.430;2022-08-04T15:23:26;7.63;;;4.60;;
22573;SDS011;11453;52.052;20.430;2022-08-04T15:25:57;9.73;;;5.28;;
22573;SDS011;11453;52.052;20.430;2022-08-04T15:28:27;20.10;;;7.75;;
22573;SDS011;11453;52.052;20.430;2022-08-04T15:30:57;21.25;;;7.15;;
22573;SDS011;11453;52.052;20.430;2022-08-04T15:33:29;16.83;;;6.78;;
22573;SDS011;11453;52.052;20.430;2022-08-04T15:36:09;14.15;;;6.13;;
22573;SDS011;11453;52.052;20.430;2022-08-04T15:38:41;14.15;;;7.80;;
22573;SDS011;11453;52.052;20.430;2022-08-04T15:41:39;11.00;;;5.00;;
22573;SDS011;11453;52.052;20.430;2022-08-04T15:44:35;9.05;;;5.20;;
22573;SDS011;11453;52.052;20.430;2022-08-04T15:47:14;11.18;;;5.15;;
22573;SDS011;11453;52.052;20.430;2022-08-04T15:49:42;9.45;;;4.97;;
22573;SDS011;11453;52.052;20.430;2022-08-04T15:52:14;7.05;;;4.57;;
22573;SDS011;11453;52.052;20.430;2022-08-04T15:54:41;8.73;;;4.75;;
22573;SDS011;11453;52.052;20.430;2022-08-04T15:57:10;8.52;;;5.80;;
22573;SDS011;11453;52.052;20.430;2022-08-04T15:59:55;9.75;;;4.53;;
22573;SDS011;11453;52.052;20.430;2022-08-04T16:07:51;9.80;;;5.10;;
22573;SDS011;11453;52.052;20.430;2022-08-04T16:12:54;8.93;;;5.53;;
22573;SDS011;11453;52.052;20.430;2022-08-04T16:15:35;8.57;;;6.13;;
22573;SDS011;11453;52.052;20.430;2022-08-04T16:18:05;11.45;;;7.10;;
22573;SDS011;11453;52.052;20.430;2022-08-04T16:20:32;7.60;;;5.10;;
22573;SDS011;11453;52.052;20.430;2022-08-04T16:23:02;8.50;;;5.03;;
22573;SDS011;11453;52.052;20.430;2022-08-04T16:25:52;12.13;;;5.87;;
22573;SDS011;11453;52.052;20.430;2022-08-04T16:31:08;8.38;;;5.53;;
22573;SDS011;11453;52.052;20.430;2022-08-04T16:33:37;10.52;;;7.30;;
22573;SDS011;11453;52.052;20.430;2022-08-04T16:36:06;8.18;;;5.47;;
22573;SDS011;11453;52.052;20.430;2022-08-04T16:41:37;9.18;;;6.35;;
22573;SDS011;11453;52.052;20.430;2022-08-04T16:44:27;8.30;;;5.32;;
22573;SDS011;11453;52.052;20.430;2022-08-04T16:46:59;9.48;;;5.97;;
22573;SDS011;11453;52.052;20.430;2022-08-04T16:49:27;9.50;;;5.38;;
22573;SDS011;11453;52.052;20.430;2022-08-04T16:52:01;8.55;;;5.22;;
22573;SDS011;11453;52.052;20.430;2022-08-04T16:54:32;10.55;;;6.30;;
22573;SDS011;11453;52.052;20.430;2022-08-04T16:57:07;11.13;;;6.60;;
22573;SDS011;11453;52.052;20.430;2022-08-04T16:59:36;7.70;;;5.97;;
22573;SDS011;11453;52.052;20.430;2022-08-04T17:02:04;7.72;;;5.72;;
22573;SDS011;11453;52.052;20.430;2022-08-04T17:04:36;8.95;;;6.00;;
22573;SDS011;11453;52.052;20.430;2022-08-04T17:07:07;8.60;;;5.72;;
22573;SDS011;11453;52.052;20.430;2022-08-04T17:09:34;7.93;;;5.65;;
22573;SDS011;11453;52.052;20.430;2022-08-04T17:12:05;9.80;;;5.95;;
22573;SDS011;11453;52.052;20.430;2022-08-04T17:14:36;10.82;;;6.70;;
22573;SDS011;11453;52.052;20.430;2022-08-04T17:17:05;8.65;;;5.68;;
22573;SDS011;11453;52.052;20.430;2022-08-04T17:19:35;8.95;;;6.32;;
22573;SDS011;11453;52.052;20.430;2022-08-04T17:22:06;8.73;;;5.60;;
22573;SDS011;11453;52.052;20.430;2022-08-04T17:24:35;7.40;;;5.10;;
22573;SDS011;11453;52.052;20.430;2022-08-04T17:27:03;8.30;;;5.20;;
22573;SDS011;11453;52.052;20.430;2022-08-04T17:29:33;8.65;;;5.22;;
22573;SDS011;11453;52.052;20.430;2022-08-04T17:32:02;7.03;;;4.40;;
22573;SDS011;11453;52.052;20.430;2022-08-04T17:34:32;10.00;;;5.53;;
22573;SDS011;11453;52.052;20.430;2022-08-04T17:37:02;8.32;;;5.45;;
22573;SDS011;11453;52.052;20.430;2022-08-04T17:39:32;9.75;;;5.78;;
22573;SDS011;11453;52.052;20.430;2022-08-04T17:42:01;8.68;;;4.80;;
22573;SDS011;11453;52.052;20.430;2022-08-04T17:44:34;8.77;;;4.70;;
22573;SDS011;11453;52.052;20.430;2022-08-04T17:47:06;8.95;;;5.45;;
22573;SDS011;11453;52.052;20.430;2022-08-04T17:49:45;9.00;;;5.38;;
22573;SDS011;11453;52.052;20.430;2022-08-04T17:52:19;7.53;;;5.88;;
22573;SDS011;11453;52.052;20.430;2022-08-04T17:54:57;10.15;;;5.53;;
22573;SDS011;11453;52.052;20.430;2022-08-04T17:57:27;8.88;;;5.70;;
22573;SDS011;11453;52.052;20.430;2022-08-04T17:59:59;10.32;;;7.22;;
22573;SDS011;11453;52.052;20.430;2022-08-04T18:02:28;9.80;;;6.03;;
22573;SDS011;11453;52.052;20.430;2022-08-04T18:04:56;10.80;;;6.93;;
22573;SDS011;11453;52.052;20.430;2022-08-04T18:07:35;9.55;;;5.35;;
22573;SDS011;11453;52.052;20.430;2022-08-04T18:10:03;10.27;;;5.72;;
22573;SDS011;11453;52.052;20.430;2022-08-04T18:12:33;8.32;;;5.38;;
22573;SDS011;11453;52.052;20.430;2022-08-04T18:15:05;9.60;;;5.25;;
22573;SDS011;11453;52.052;20.430;2022-08-04T18:17:46;8.10;;;5.38;;
22573;SDS011;11453;52.052;20.430;2022-08-04T18:20:16;10.25;;;5.32;;
22573;SDS011;11453;52.052;20.430;2022-08-04T18:22:45;11.23;;;5.47;;
22573;SDS011;11453;52.052;20.430;2022-08-04T18:25:12;10.55;;;5.22;;
22573;SDS011;11453;52.052;20.430;2022-08-04T18:27:45;12.93;;;5.47;;
22573;SDS011;11453;52.052;20.430;2022-08-04T18:30:13;13.70;;;6.17;;
22573;SDS011;11453;52.052;20.430;2022-08-04T18:32:42;9.82;;;5.70;;
22573;SDS011;11453;52.052;20.430;2022-08-04T18:35:11;12.32;;;5.18;;
22573;SDS011;11453;52.052;20.430;2022-08-04T18:37:40;12.75;;;6.80;;
22573;SDS011;11453;52.052;20.430;2022-08-04T18:40:10;11.85;;;6.45;;
22573;SDS011;11453;52.052;20.430;2022-08-04T18:42:38;12.40;;;5.93;;
22573;SDS011;11453;52.052;20.430;2022-08-04T18:45:07;11.18;;;6.47;;
22573;SDS011;11453;52.052;20.430;2022-08-04T18:47:36;13.98;;;6.82;;
22573;SDS011;11453;52.052;20.430;2022-08-04T18:50:05;10.75;;;7.07;;
22573;SDS011;11453;52.052;20.430;2022-08-04T18:52:33;11.65;;;7.28;;
22573;SDS011;11453;52.052;20.430;2022-08-04T18:55:01;14.15;;;7.32;;
22573;SDS011;11453;52.052;20.430;2022-08-04T18:57:31;16.52;;;6.60;;
22573;SDS011;11453;52.052;20.430;2022-08-04T19:00:02;11.52;;;6.95;;
22573;SDS011;11453;52.052;20.430;2022-08-04T19:02:31;12.23;;;7.03;;
22573;SDS011;11453;52.052;20.430;2022-08-04T19:05:00;12.35;;;7.13;;
22573;SDS011;11453;52.052;20.430;2022-08-04T19:07:27;13.20;;;7.68;;
22573;SDS011;11453;52.052;20.430;2022-08-04T19:09:56;14.15;;;7.68;;
22573;SDS011;11453;52.052;20.430;2022-08-04T19:12:23;12.20;;;7.70;;
22573;SDS011;11453;52.052;20.430;2022-08-04T19:14:54;12.73;;;7.85;;
22573;SDS011;11453;52.052;20.430;2022-08-04T19:17:23;13.68;;;8.35;;
22573;SDS011;11453;52.052;20.430;2022-08-04T19:19:52;13.55;;;8.45;;
22573;SDS011;11453;52.052;20.430;2022-08-04T19:22:21;17.10;;;9.23;;
22573;SDS011;11453;52.052;20.430;2022-08-04T19:24:48;18.33;;;10.20;;
22573;SDS011;11453;52.052;20.430;2022-08-04T19:27:18;18.42;;;10.77;;
22573;SDS011;11453;52.052;20.430;2022-08-04T19:29:51;18.13;;;12.73;;
22573;SDS011;11453;52.052;20.430;2022-08-04T19:32:21;20.45;;;13.02;;
22573;SDS011;11453;52.052;20.430;2022-08-04T19:34:51;20.98;;;13.15;;
22573;SDS011;11453;52.052;20.430;2022-08-04T19:37:18;21.02;;;13.30;;
22573;SDS011;11453;52.052;20.430;2022-08-04T19:39:47;20.90;;;14.43;;
22573;SDS011;11453;52.052;20.430;2022-08-04T19:42:17;21.13;;;15.88;;
22573;SDS011;11453;52.052;20.430;2022-08-04T19:44:45;22.58;;;15.98;;
22573;SDS011;11453;52.052;20.430;2022-08-04T19:47:16;21.98;;;15.77;;
22573;SDS011;11453;52.052;20.430;2022-08-04T19:49:45;21.02;;;15.43;;
22573;SDS011;11453;52.052;20.430;2022-08-04T19:52:16;19.88;;;15.32;;
22573;SDS011;11453;52.052;20.430;2022-08-04T19:54:50;23.02;;;15.15;;
22573;SDS011;11453;52.052;20.430;2022-08-04T19:57:20;19.38;;;14.15;;
22573;SDS011;11453;52.052;20.430;2022-08-04T19:59:51;20.67;;;14.25;;
22573;SDS011;11453;52.052;20.430;2022-08-04T20:02:20;18.73;;;12.68;;
22573;SDS011;11453;52.052;20.430;2022-08-04T20:04:49;22.48;;;13.07;;
22573;SDS011;11453;52.052;20.430;2022-08-04T20:07:18;20.58;;;12.43;;